createdAt,value
2019-05-19T00:01:33.760Z,25.43
2019-05-19T00:04:02.547Z,25.20
2019-05-19T00:06:31.330Z,26.90
2019-05-19T00:09:00.132Z,29.50
2019-05-19T00:11:28.603Z,25.77
2019-05-19T00:13:57.415Z,28.12
2019-05-19T00:16:26.303Z,27.02
2019-05-19T00:18:54.756Z,28.02
2019-05-19T00:21:23.588Z,25.65
2019-05-19T00:23:52.376Z,26.75
2019-05-19T00:26:20.843Z,26.52
2019-05-19T00:28:49.299Z,24.45
2019-05-19T00:31:17.766Z,26.82
2019-05-19T00:33:47.650Z,26.90
2019-05-19T00:36:16.124Z,26.55
2019-05-19T00:38:44.928Z,27.00
2019-05-19T00:41:13.719Z,26.77
2019-05-19T00:43:42.172Z,24.57
2019-05-19T00:46:10.999Z,29.70
2019-05-19T00:48:39.795Z,26.15
2019-05-19T00:51:08.539Z,25.50
2019-05-19T00:53:37.276Z,30.08
2019-05-19T00:56:06.103Z,29.35
2019-05-19T00:58:35.788Z,26.12
2019-05-19T01:01:04.346Z,24.10
2019-05-19T01:03:32.862Z,24.65
2019-05-19T01:06:01.359Z,22.98
2019-05-19T01:08:30.135Z,22.90
2019-05-19T01:10:58.622Z,25.17
2019-05-19T01:13:27.411Z,23.47
2019-05-19T01:15:56.210Z,24.32
2019-05-19T01:18:25.000Z,25.02
2019-05-19T01:20:53.467Z,25.25
2019-05-19T01:23:22.279Z,25.95
2019-05-19T01:25:50.759Z,22.00
2019-05-19T01:28:19.563Z,25.23
2019-05-19T01:30:48.390Z,24.60
2019-05-19T01:33:17.169Z,26.65
2019-05-19T01:35:46.269Z,26.02
2019-05-19T01:38:14.714Z,24.92
2019-05-19T01:40:43.192Z,28.85
2019-05-19T01:43:11.648Z,29.27
2019-05-19T01:45:40.240Z,25.32
2019-05-19T01:48:08.727Z,27.62
2019-05-19T01:50:37.208Z,26.95
2019-05-19T01:53:05.735Z,28.10
2019-05-19T01:55:34.544Z,28.23
2019-05-19T01:58:03.012Z,28.75
2019-05-19T02:00:31.543Z,31.77
2019-05-19T02:03:00.308Z,31.05
2019-05-19T02:05:28.767Z,29.35
2019-05-19T02:07:57.588Z,27.65
2019-05-19T02:10:26.474Z,31.62
2019-05-19T02:12:55.272Z,27.17
2019-05-19T02:15:24.263Z,28.70
2019-05-19T02:17:52.739Z,31.10
2019-05-19T02:20:32.722Z,32.78
2019-05-19T02:22:51.757Z,32.93
2019-05-19T02:25:21.011Z,36.23
2019-05-19T02:27:49.492Z,36.03
2019-05-19T02:30:19.693Z,37.00
2019-05-19T02:32:48.599Z,32.65
2019-05-19T02:35:17.887Z,33.00
2019-05-19T02:37:46.679Z,36.83
2019-05-19T02:40:15.500Z,37.55
2019-05-19T02:42:45.513Z,38.00
2019-05-19T02:45:16.342Z,36.95
2019-05-19T02:47:47.068Z,41.42
2019-05-19T02:50:15.661Z,28.55
2019-05-19T02:52:47.283Z,26.60
2019-05-19T02:55:16.677Z,29.72
2019-05-19T02:57:46.324Z,35.52
2019-05-19T03:00:15.028Z,37.85
2019-05-19T03:02:43.566Z,35.98
2019-05-19T03:05:13.880Z,37.70
2019-05-19T03:07:42.737Z,34.23
2019-05-19T03:10:11.827Z,33.90
2019-05-19T03:12:40.619Z,36.60
2019-05-19T03:15:09.423Z,34.05
2019-05-19T03:17:38.224Z,36.23
2019-05-19T03:20:06.920Z,47.80
2019-05-19T03:22:35.397Z,30.40
2019-05-19T03:25:05.959Z,31.20
2019-05-19T03:27:34.452Z,38.67
2019-05-19T03:30:21.088Z,42.88
2019-05-19T03:32:52.224Z,38.23
2019-05-19T03:35:20.752Z,32.45
2019-05-19T03:37:49.307Z,36.60
2019-05-19T03:40:20.451Z,36.13
2019-05-19T03:42:53.196Z,35.73
2019-05-19T03:45:21.653Z,38.85
2019-05-19T03:47:50.848Z,33.83
2019-05-19T03:50:19.392Z,41.53
2019-05-19T03:52:47.924Z,37.95
2019-05-19T03:55:16.448Z,38.78
2019-05-19T03:57:44.915Z,41.02
2019-05-19T04:00:14.378Z,36.65
2019-05-19T04:02:42.927Z,33.05
2019-05-19T04:05:12.387Z,36.50
2019-05-19T04:07:41.123Z,37.95
2019-05-19T04:10:09.725Z,42.33
2019-05-19T04:12:38.569Z,40.98
2019-05-19T04:15:08.031Z,44.30
2019-05-19T04:17:36.491Z,34.63
2019-05-19T04:20:06.572Z,33.55
2019-05-19T04:22:35.024Z,37.38
2019-05-19T04:25:03.663Z,29.50
2019-05-19T04:27:32.560Z,30.45
2019-05-19T04:30:01.108Z,28.32
2019-05-19T04:32:29.566Z,32.88
2019-05-19T04:34:58.112Z,28.83
2019-05-19T04:37:26.904Z,27.87
2019-05-19T04:39:55.447Z,27.80
2019-05-19T04:42:23.982Z,30.17
2019-05-19T04:44:52.451Z,26.90
2019-05-19T04:47:20.914Z,25.65
2019-05-19T04:49:49.456Z,25.48
2019-05-19T04:52:18.237Z,27.60
2019-05-19T04:54:46.791Z,29.57
2019-05-19T04:57:15.611Z,25.82
2019-05-19T04:59:44.087Z,24.77
2019-05-19T05:02:12.895Z,21.80
2019-05-19T05:04:41.368Z,25.60
2019-05-19T05:07:10.172Z,24.65
2019-05-19T05:09:38.969Z,23.80
2019-05-19T05:12:07.855Z,24.82
2019-05-19T05:14:36.336Z,22.70
2019-05-19T05:17:04.854Z,25.25
2019-05-19T05:19:33.662Z,24.43
2019-05-19T05:22:02.172Z,23.83
2019-05-19T05:24:31.008Z,24.10
2019-05-19T05:26:59.474Z,23.87
2019-05-19T05:29:28.278Z,20.97
2019-05-19T05:31:56.731Z,21.57
2019-05-19T05:34:25.524Z,20.15
2019-05-19T05:36:54.347Z,23.57
2019-05-19T05:39:22.846Z,21.05
2019-05-19T05:41:51.370Z,20.27
2019-05-19T05:44:20.134Z,19.15
2019-05-19T05:46:48.655Z,18.27
2019-05-19T05:49:17.127Z,18.37
2019-05-19T05:51:45.583Z,18.80
2019-05-19T05:54:14.383Z,18.75
2019-05-19T05:56:42.844Z,23.07
2019-05-19T05:59:11.648Z,19.37
2019-05-19T06:01:40.103Z,21.10
2019-05-19T06:04:08.584Z,18.95
2019-05-19T06:06:37.041Z,22.45
2019-05-19T06:09:06.641Z,22.40
2019-05-19T06:11:35.508Z,23.22
2019-05-19T06:14:04.030Z,22.17
2019-05-19T06:16:32.512Z,17.42
2019-05-19T06:19:01.380Z,16.10
2019-05-19T06:21:30.167Z,16.32
2019-05-19T06:23:58.623Z,16.82
2019-05-19T06:26:27.095Z,18.98
2019-05-19T06:28:55.551Z,18.37
2019-05-19T06:31:24.027Z,18.62
2019-05-19T06:33:52.811Z,17.35
2019-05-19T06:36:21.699Z,16.48
2019-05-19T06:38:50.165Z,15.70
2019-05-19T06:41:18.704Z,15.45
2019-05-19T06:43:47.467Z,17.52
2019-05-19T06:46:16.268Z,14.58
2019-05-19T06:48:44.782Z,15.28
2019-05-19T06:51:13.536Z,16.52
2019-05-19T06:53:42.431Z,17.82
2019-05-19T06:56:11.238Z,18.25
2019-05-19T06:58:40.119Z,15.53
2019-05-19T07:01:08.608Z,14.70
2019-05-19T07:03:37.406Z,13.50
2019-05-19T07:06:05.951Z,16.82
2019-05-19T07:08:34.779Z,17.70
2019-05-19T07:11:03.583Z,12.63
2019-05-19T07:13:32.366Z,14.60
2019-05-19T07:16:01.185Z,14.87
2019-05-19T07:18:29.716Z,14.30
2019-05-19T07:20:58.236Z,16.07
2019-05-19T07:23:28.547Z,12.78
2019-05-19T07:25:57.227Z,12.23
2019-05-19T07:28:25.696Z,15.10
2019-05-19T07:30:54.173Z,14.33
2019-05-19T07:33:22.700Z,13.20
2019-05-19T07:35:51.247Z,15.48
2019-05-19T07:38:19.991Z,14.63
2019-05-19T07:40:48.503Z,15.23
2019-05-19T07:43:17.251Z,13.50
2019-05-19T07:45:46.077Z,16.02
2019-05-19T07:48:14.598Z,19.82
2019-05-19T07:50:43.143Z,14.30
2019-05-19T07:53:11.613Z,16.05
2019-05-19T07:55:40.151Z,15.30
2019-05-19T07:58:08.604Z,20.10
2019-05-19T08:00:37.060Z,16.65
2019-05-19T08:03:05.799Z,22.22
2019-05-19T08:05:34.527Z,20.08
2019-05-19T08:08:03.071Z,17.87
2019-05-19T08:10:31.835Z,19.87
2019-05-19T08:13:00.311Z,22.02
2019-05-19T08:15:28.771Z,20.90
2019-05-19T08:17:57.247Z,19.80
2019-05-19T08:20:26.091Z,19.60
2019-05-19T08:22:54.884Z,19.62
2019-05-19T08:25:23.674Z,19.65
2019-05-19T08:27:52.486Z,21.55
2019-05-19T08:30:21.015Z,21.75
2019-05-19T08:32:49.889Z,19.77
2019-05-19T08:35:18.384Z,20.02
2019-05-19T08:37:46.862Z,19.82
2019-05-19T08:40:15.724Z,19.00
2019-05-19T08:42:44.662Z,18.95
2019-05-19T08:45:13.406Z,20.10
2019-05-19T08:47:41.959Z,20.05
2019-05-19T08:50:11.096Z,19.87
2019-05-19T08:52:39.932Z,21.40
2019-05-19T08:55:09.499Z,20.12
2019-05-19T08:57:38.109Z,20.75
2019-05-19T09:00:07.591Z,19.10
2019-05-19T09:02:36.346Z,20.43
2019-05-19T09:05:06.216Z,23.62
2019-05-19T09:07:34.696Z,19.82
2019-05-19T09:10:04.893Z,22.58
2019-05-19T09:12:33.794Z,20.68
2019-05-19T09:15:02.258Z,20.23
2019-05-19T09:17:31.092Z,21.77
2019-05-19T09:19:59.559Z,22.90
2019-05-19T09:22:28.127Z,21.12
2019-05-19T09:24:56.989Z,21.60
2019-05-19T09:27:25.852Z,20.48
2019-05-19T09:29:54.643Z,22.58
2019-05-19T09:32:23.439Z,20.60
2019-05-19T09:34:52.231Z,21.07
2019-05-19T09:37:20.963Z,21.35
2019-05-19T09:39:49.716Z,22.15
2019-05-19T09:42:18.515Z,21.75
2019-05-19T09:44:47.399Z,21.23
2019-05-19T09:47:15.876Z,22.52
2019-05-19T09:49:44.680Z,22.05
2019-05-19T09:52:17.005Z,23.15
2019-05-19T09:54:45.631Z,22.95
2019-05-19T09:57:14.072Z,22.58
2019-05-19T09:59:42.632Z,23.60
2019-05-19T10:02:11.404Z,23.42
2019-05-19T10:04:39.878Z,22.98
2019-05-19T10:07:08.811Z,21.90
2019-05-19T10:09:40.840Z,22.55
2019-05-19T10:12:09.666Z,21.07
2019-05-19T10:14:38.439Z,21.45
2019-05-19T10:17:07.251Z,21.87
2019-05-19T10:19:35.728Z,22.65
2019-05-19T10:22:04.272Z,22.60
2019-05-19T10:24:32.827Z,20.43
2019-05-19T10:27:01.355Z,22.98
2019-05-19T10:29:30.181Z,21.42
2019-05-19T10:31:58.711Z,19.92
2019-05-19T10:34:27.560Z,21.15
2019-05-19T10:36:56.348Z,23.02
2019-05-19T10:39:25.243Z,18.95
2019-05-19T10:41:54.035Z,18.92
2019-05-19T10:44:22.831Z,20.35
2019-05-19T10:46:51.629Z,19.12
2019-05-19T10:49:20.527Z,19.80
2019-05-19T10:51:49.414Z,18.60
2019-05-19T10:54:17.918Z,20.82
2019-05-19T10:56:46.792Z,22.02
2019-05-19T10:59:15.592Z,20.88
2019-05-19T11:01:44.060Z,19.73
2019-05-19T11:04:12.968Z,18.80
2019-05-19T11:06:41.427Z,18.27
2019-05-19T11:09:10.258Z,22.05
2019-05-19T11:11:38.786Z,17.98
2019-05-19T11:14:07.331Z,20.75
2019-05-19T11:16:35.791Z,18.92
2019-05-19T11:19:04.932Z,19.92
2019-05-19T11:21:33.455Z,17.40
2019-05-19T11:24:01.996Z,17.40
2019-05-19T11:26:30.451Z,19.48
2019-05-19T11:28:58.935Z,16.95
2019-05-19T11:31:27.743Z,19.57
2019-05-19T11:33:56.220Z,18.27
2019-05-19T11:36:24.677Z,19.85
2019-05-19T11:38:53.150Z,19.27
2019-05-19T11:41:21.895Z,18.30
2019-05-19T11:43:50.375Z,19.92
2019-05-19T11:46:19.177Z,18.60
2019-05-19T11:48:47.664Z,16.95
2019-05-19T11:51:16.127Z,18.87
2019-05-19T11:53:44.655Z,16.65
2019-05-19T11:56:13.124Z,16.75
2019-05-19T11:58:41.578Z,16.62
2019-05-19T12:01:10.056Z,16.93
2019-05-19T12:03:38.507Z,16.90
2019-05-19T12:06:07.266Z,16.85
2019-05-19T12:08:36.165Z,16.57
2019-05-19T12:11:04.708Z,16.45
2019-05-19T12:13:35.091Z,17.82
2019-05-19T12:16:04.072Z,19.10
2019-05-19T12:18:32.526Z,17.17
2019-05-19T12:21:01.274Z,16.15
2019-05-19T12:23:29.803Z,17.32
2019-05-19T12:25:58.674Z,16.32
2019-05-19T12:28:27.168Z,16.20
2019-05-19T12:30:55.911Z,15.65
2019-05-19T12:33:24.434Z,16.55
2019-05-19T12:35:53.191Z,17.07
2019-05-19T12:38:21.644Z,18.07
2019-05-19T12:40:50.467Z,15.80
2019-05-19T12:43:19.259Z,14.83
2019-05-19T12:45:47.816Z,15.85
2019-05-19T12:48:16.280Z,15.78
2019-05-19T12:50:45.132Z,16.07
2019-05-19T12:53:13.669Z,17.85
2019-05-19T12:55:42.503Z,15.15
2019-05-19T12:58:10.967Z,15.83
2019-05-19T13:00:39.800Z,17.85
2019-05-19T13:03:08.683Z,16.12
2019-05-19T13:05:37.160Z,17.00
2019-05-19T13:08:05.614Z,14.90
2019-05-19T13:10:34.447Z,15.65
2019-05-19T13:13:03.246Z,13.98
2019-05-19T13:15:32.144Z,15.15
2019-05-19T13:18:01.037Z,15.10
2019-05-19T13:20:29.585Z,14.30
2019-05-19T13:22:58.046Z,13.80
2019-05-19T13:25:26.602Z,16.75
2019-05-19T13:27:55.491Z,16.93
2019-05-19T13:30:24.280Z,16.50
2019-05-19T13:32:53.073Z,13.00
2019-05-19T13:35:21.969Z,15.35
2019-05-19T13:37:51.191Z,13.83
2019-05-19T13:40:20.179Z,15.15
2019-05-19T13:42:48.707Z,28.70
2019-05-19T13:45:17.879Z,17.55
2019-05-19T13:47:46.648Z,19.27
2019-05-19T13:50:15.325Z,16.42
2019-05-19T13:52:44.236Z,16.67
2019-05-19T13:55:13.187Z,17.90
2019-05-19T13:57:41.659Z,16.57
2019-05-19T14:00:10.351Z,16.27
2019-05-19T14:02:38.895Z,15.38
2019-05-19T14:05:07.516Z,15.80
2019-05-19T14:07:36.151Z,16.27
2019-05-19T14:10:07.319Z,14.75
2019-05-19T14:12:36.249Z,17.15
2019-05-19T14:15:06.652Z,16.10
2019-05-19T14:17:35.367Z,18.60
2019-05-19T14:20:06.063Z,16.65
2019-05-19T14:22:34.539Z,17.67
2019-05-19T14:25:03.263Z,19.05
2019-05-19T14:27:31.756Z,17.73
2019-05-19T14:30:00.535Z,16.67
2019-05-19T14:32:29.083Z,17.87
2019-05-19T14:34:57.812Z,17.95
2019-05-19T14:37:26.292Z,18.85
2019-05-19T14:39:55.068Z,18.52
2019-05-19T14:42:43.626Z,17.80
2019-05-19T14:45:13.123Z,19.77
2019-05-19T14:47:41.679Z,16.80
2019-05-19T14:50:10.275Z,17.50
2019-05-19T14:52:41.771Z,15.70
2019-05-19T14:55:10.363Z,14.23
2019-05-19T14:57:44.821Z,13.05
2019-05-19T15:00:09.943Z,17.60
2019-05-19T15:02:38.487Z,13.45
2019-05-19T15:05:07.583Z,12.60
2019-05-19T15:07:36.311Z,15.30
2019-05-19T15:10:05.986Z,11.65
2019-05-19T15:12:34.535Z,14.05
2019-05-19T15:15:03.339Z,13.18
2019-05-19T15:17:31.906Z,14.45
2019-05-19T15:20:00.415Z,13.20
2019-05-19T15:22:28.891Z,14.40
2019-05-19T15:24:57.338Z,14.87
2019-05-19T15:27:25.814Z,14.43
2019-05-19T15:29:54.537Z,16.37
2019-05-19T15:32:23.084Z,15.45
2019-05-19T15:34:51.542Z,13.58
2019-05-19T15:37:20.016Z,16.97
2019-05-19T15:39:48.467Z,19.87
2019-05-19T15:42:17.212Z,15.90
2019-05-19T15:44:45.663Z,13.45
2019-05-19T15:47:14.148Z,15.70
2019-05-19T15:49:42.936Z,15.18
2019-05-19T15:52:11.411Z,15.08
2019-05-19T15:54:39.950Z,12.93
2019-05-19T15:57:08.511Z,15.35
2019-05-19T15:59:37.335Z,14.43
2019-05-19T16:02:06.133Z,17.32
2019-05-19T16:04:34.616Z,13.03
2019-05-19T16:07:03.406Z,16.35
2019-05-19T16:09:31.956Z,14.58
2019-05-19T16:12:02.917Z,16.17
2019-05-19T16:14:31.770Z,15.23
2019-05-19T16:17:00.516Z,14.78
2019-05-19T16:19:28.987Z,16.07
2019-05-19T16:21:57.438Z,13.88
2019-05-19T16:24:25.911Z,14.98
2019-05-19T16:26:54.378Z,16.30
2019-05-19T16:29:22.922Z,14.58
2019-05-19T16:31:51.375Z,16.90
2019-05-19T16:34:19.846Z,15.70
2019-05-19T16:36:48.620Z,16.55
2019-05-19T16:39:17.100Z,16.73
2019-05-19T16:41:45.563Z,16.32
2019-05-19T16:44:14.379Z,15.40
2019-05-19T16:46:43.095Z,15.58
2019-05-19T16:49:11.911Z,15.95
2019-05-19T16:51:40.498Z,17.45
2019-05-19T16:54:10.679Z,14.98
2019-05-19T16:56:39.134Z,17.00
2019-05-19T16:59:07.955Z,14.98
2019-05-19T17:01:36.416Z,16.07
2019-05-19T17:04:04.959Z,17.32
2019-05-19T17:06:33.719Z,15.75
2019-05-19T17:09:02.212Z,17.70
2019-05-19T17:11:30.670Z,16.67
2019-05-19T17:13:59.151Z,17.82
2019-05-19T17:16:27.971Z,16.57
2019-05-19T17:18:56.451Z,19.90
2019-05-19T17:21:25.252Z,19.00
2019-05-19T17:23:53.727Z,18.42
2019-05-19T17:26:22.731Z,16.07
2019-05-19T17:29:00.109Z,17.07
2019-05-19T17:31:21.383Z,17.62
2019-05-19T17:33:49.861Z,18.85
2019-05-19T17:36:18.315Z,18.67
2019-05-19T17:38:46.836Z,17.90
2019-05-19T17:41:15.589Z,18.67
2019-05-19T17:43:44.136Z,18.57
2019-05-19T17:46:12.972Z,19.20
2019-05-19T17:48:41.871Z,23.10
2019-05-19T17:51:10.581Z,16.97
2019-05-19T17:53:39.035Z,17.60
2019-05-19T17:56:07.510Z,19.52
2019-05-19T17:58:36.430Z,19.60
2019-05-19T18:01:04.899Z,17.98
2019-05-19T18:03:34.627Z,20.15
2019-05-19T18:06:03.108Z,52.35
2019-05-19T18:08:31.695Z,20.65
2019-05-19T18:11:00.235Z,19.70
2019-05-19T18:13:29.117Z,22.22
2019-05-19T18:15:57.903Z,19.32
2019-05-19T18:18:26.770Z,17.27
2019-05-19T18:20:55.563Z,18.62
2019-05-19T18:23:24.106Z,19.17
2019-05-19T18:25:52.944Z,19.52
2019-05-19T18:28:21.735Z,20.30
2019-05-19T18:30:50.207Z,20.00
2019-05-19T18:33:18.663Z,21.30
2019-05-19T18:35:47.500Z,18.37
2019-05-19T18:38:15.951Z,19.02
2019-05-19T18:40:44.764Z,23.27
2019-05-19T18:43:13.219Z,22.95
2019-05-19T18:45:41.699Z,19.15
2019-05-19T18:48:10.155Z,19.80
2019-05-19T18:50:38.636Z,20.40
2019-05-19T18:53:07.422Z,20.37
2019-05-19T18:55:36.312Z,19.40
2019-05-19T18:58:05.110Z,21.37
2019-05-19T19:00:36.672Z,19.87
2019-05-19T19:03:05.970Z,21.68
2019-05-19T19:05:34.589Z,21.35
2019-05-19T19:08:03.455Z,21.15
2019-05-19T19:10:32.348Z,23.38
2019-05-19T19:13:00.877Z,22.55
2019-05-19T19:15:30.195Z,28.77
2019-05-19T19:17:58.855Z,28.17
2019-05-19T19:20:27.504Z,24.35
2019-05-19T19:22:55.968Z,25.15
2019-05-19T19:25:24.446Z,26.52
2019-05-19T19:27:52.904Z,30.97
2019-05-19T19:30:21.454Z,27.37
2019-05-19T19:32:49.978Z,32.38
2019-05-19T19:35:19.204Z,35.05
2019-05-19T19:37:47.659Z,33.63
2019-05-19T19:40:19.219Z,29.82
2019-05-19T19:42:47.743Z,35.95
2019-05-19T19:45:16.291Z,34.50
2019-05-19T19:47:44.758Z,33.10
2019-05-19T19:50:13.543Z,30.05
2019-05-19T19:52:42.077Z,34.70
2019-05-19T19:55:10.743Z,43.30
2019-05-19T19:57:39.507Z,38.30
2019-05-19T20:00:17.951Z,34.63
2019-05-19T20:02:38.611Z,49.77
2019-05-19T20:05:07.731Z,53.48
2019-05-19T20:07:36.275Z,42.50
2019-05-19T20:10:06.475Z,43.83
2019-05-19T20:12:35.020Z,49.27
2019-05-19T20:15:03.927Z,44.42
2019-05-19T20:17:32.471Z,44.45
2019-05-19T20:20:01.191Z,49.58
2019-05-19T20:22:29.664Z,55.92
2019-05-19T20:24:58.488Z,53.30
2019-05-19T20:27:26.997Z,43.20
2019-05-19T20:29:55.868Z,41.77
2019-05-19T20:32:24.350Z,37.08
2019-05-19T20:34:52.875Z,51.37
2019-05-19T20:37:21.350Z,48.95
2019-05-19T20:39:50.071Z,39.20
2019-05-19T20:42:18.627Z,35.00
2019-05-19T20:44:47.394Z,41.20
2019-05-19T20:47:15.867Z,52.80
2019-05-19T20:49:44.583Z,51.28
2019-05-19T20:52:13.056Z,44.77
2019-05-19T20:54:41.851Z,38.98
2019-05-19T20:57:10.743Z,40.28
2019-05-19T20:59:39.546Z,49.67
2019-05-19T21:02:08.173Z,50.20
2019-05-19T21:04:36.691Z,44.08
2019-05-19T21:07:07.744Z,56.10
2019-05-19T21:09:35.362Z,70.15
2019-05-19T21:12:04.120Z,55.63
2019-05-19T21:14:32.579Z,59.80
2019-05-19T21:17:01.399Z,72.65
2019-05-19T21:19:30.111Z,60.78
2019-05-19T21:21:58.876Z,51.68
2019-05-19T21:24:27.348Z,60.20
2019-05-19T21:26:56.144Z,77.45
2019-05-19T21:29:24.603Z,42.35
2019-05-19T21:31:53.079Z,66.75
2019-05-19T21:34:21.547Z,62.08
2019-05-19T21:36:50.411Z,64.35
2019-05-19T21:39:18.872Z,65.67
2019-05-19T21:41:47.420Z,86.50
2019-05-19T21:44:15.874Z,73.55
2019-05-19T21:46:44.356Z,60.95
2019-05-19T21:49:12.818Z,59.23
2019-05-19T21:51:41.347Z,66.05
2019-05-19T21:54:10.121Z,87.40
2019-05-19T21:56:38.907Z,97.82
2019-05-19T21:59:07.700Z,110.50
2019-05-19T22:01:36.168Z,111.97
2019-05-19T22:04:05.088Z,98.15
2019-05-19T22:06:35.513Z,95.97
2019-05-19T22:09:05.688Z,68.47
2019-05-19T22:11:34.147Z,66.05
2019-05-19T22:14:02.791Z,82.35
2019-05-19T22:16:31.602Z,71.60
2019-05-19T22:19:00.347Z,69.53
2019-05-19T22:21:28.807Z,100.00
2019-05-19T22:23:57.580Z,104.83
2019-05-19T22:26:26.039Z,92.97
2019-05-19T22:28:54.517Z,86.53
2019-05-19T22:31:36.020Z,66.10
2019-05-19T22:33:53.171Z,81.28
2019-05-19T22:36:21.627Z,82.02
2019-05-19T22:38:50.114Z,94.13
2019-05-19T22:41:18.919Z,89.13
2019-05-19T22:43:47.398Z,88.45
2019-05-19T22:46:16.195Z,81.92
2019-05-19T22:48:44.996Z,68.05
2019-05-19T22:51:13.456Z,39.63
2019-05-19T22:53:42.267Z,84.70
2019-05-19T22:56:11.071Z,73.28
2019-05-19T22:58:41.585Z,85.62
2019-05-19T23:01:09.822Z,76.90
2019-05-19T23:03:38.678Z,69.85
2019-05-19T23:06:07.206Z,79.80
2019-05-19T23:08:35.837Z,47.45
2019-05-19T23:11:04.322Z,39.53
2019-05-19T23:13:33.128Z,38.90
2019-05-19T23:16:01.659Z,46.65
2019-05-19T23:18:30.134Z,37.53
2019-05-19T23:20:58.666Z,42.35
2019-05-19T23:23:27.476Z,39.73
2019-05-19T23:25:56.024Z,33.20
2019-05-19T23:28:24.559Z,29.15
2019-05-19T23:30:53.016Z,31.95
2019-05-19T23:33:21.485Z,37.38
2019-05-19T23:35:49.962Z,32.78
2019-05-19T23:38:18.736Z,32.15
2019-05-19T23:40:47.595Z,34.53
2019-05-19T23:43:16.392Z,36.95
2019-05-19T23:45:44.867Z,28.90
2019-05-19T23:48:13.327Z,43.23
2019-05-19T23:50:42.152Z,41.33
2019-05-19T23:53:10.640Z,40.80
2019-05-19T23:55:39.201Z,38.90
2019-05-19T23:58:07.706Z,46.90
